sensor_id;sensor_type;location;lat;lon;timestamp;P1;durP1;ratioP1;P2;durP2;ratioP2
80136;SDS011;69466;55.948;37.484;2023-07-28T00:01:46;27.80;;;18.48;;
80136;SDS011;69466;55.948;37.484;2023-07-28T00:04:12;28.13;;;18.95;;
80136;SDS011;69466;55.948;37.484;2023-07-28T00:06:39;24.73;;;18.02;;
80136;SDS011;69466;55.948;37.484;2023-07-28T00:09:05;26.13;;;18.90;;
80136;SDS011;69466;55.948;37.484;2023-07-28T00:11:31;21.30;;;17.60;;
80136;SDS011;69466;55.948;37.484;2023-07-28T00:13:56;21.25;;;16.15;;
80136;SDS011;69466;55.948;37.484;2023-07-28T00:16:22;23.35;;;16.27;;
80136;SDS011;69466;55.948;37.484;2023-07-28T00:18:48;20.50;;;15.95;;
80136;SDS011;69466;55.948;37.484;2023-07-28T00:21:14;18.85;;;16.75;;
80136;SDS011;69466;55.948;37.484;2023-07-28T00:23:40;23.92;;;18.05;;
80136;SDS011;69466;55.948;37.484;2023-07-28T00:26:06;26.50;;;19.98;;
80136;SDS011;69466;55.948;37.484;2023-07-28T00:28:32;25.40;;;18.75;;
80136;SDS011;69466;55.948;37.484;2023-07-28T00:30:58;22.38;;;16.92;;
80136;SDS011;69466;55.948;37.484;2023-07-28T00:33:24;21.20;;;16.95;;
80136;SDS011;69466;55.948;37.484;2023-07-28T00:35:50;22.35;;;16.65;;
80136;SDS011;69466;55.948;37.484;2023-07-28T00:38:15;20.80;;;16.15;;
80136;SDS011;69466;55.948;37.484;2023-07-28T00:40:41;22.27;;;16.75;;
80136;SDS011;69466;55.948;37.484;2023-07-28T00:43:08;22.95;;;17.20;;
80136;SDS011;69466;55.948;37.484;2023-07-28T00:45:35;25.15;;;16.67;;
80136;SDS011;69466;55.948;37.484;2023-07-28T00:48:02;22.05;;;16.42;;
80136;SDS011;69466;55.948;37.484;2023-07-28T00:50:33;21.65;;;15.63;;
80136;SDS011;69466;55.948;37.484;2023-07-28T00:52:59;24.80;;;17.73;;
80136;SDS011;69466;55.948;37.484;2023-07-28T00:55:25;24.42;;;17.67;;
80136;SDS011;69466;55.948;37.484;2023-07-28T00:57:51;21.92;;;15.70;;
80136;SDS011;69466;55.948;37.484;2023-07-28T01:00:18;20.73;;;16.52;;
80136;SDS011;69466;55.948;37.484;2023-07-28T01:02:45;21.25;;;15.77;;
80136;SDS011;69466;55.948;37.484;2023-07-28T01:05:12;23.58;;;16.33;;
80136;SDS011;69466;55.948;37.484;2023-07-28T01:07:42;21.77;;;16.70;;
80136;SDS011;69466;55.948;37.484;2023-07-28T01:10:17;24.17;;;17.58;;
80136;SDS011;69466;55.948;37.484;2023-07-28T01:12:48;25.10;;;18.02;;
80136;SDS011;69466;55.948;37.484;2023-07-28T01:15:13;22.58;;;18.27;;
80136;SDS011;69466;55.948;37.484;2023-07-28T01:17:40;24.67;;;19.15;;
80136;SDS011;69466;55.948;37.484;2023-07-28T01:20:07;22.85;;;17.05;;
80136;SDS011;69466;55.948;37.484;2023-07-28T01:22:45;26.45;;;17.60;;
80136;SDS011;69466;55.948;37.484;2023-07-28T01:25:36;22.50;;;16.40;;
80136;SDS011;69466;55.948;37.484;2023-07-28T01:28:13;24.45;;;17.23;;
80136;SDS011;69466;55.948;37.484;2023-07-28T01:30:40;27.52;;;17.45;;
80136;SDS011;69466;55.948;37.484;2023-07-28T01:33:07;25.15;;;18.58;;
80136;SDS011;69466;55.948;37.484;2023-07-28T01:35:35;22.58;;;16.92;;
80136;SDS011;69466;55.948;37.484;2023-07-28T01:38:03;25.88;;;16.65;;
80136;SDS011;69466;55.948;37.484;2023-07-28T01:40:29;23.75;;;17.40;;
80136;SDS011;69466;55.948;37.484;2023-07-28T01:42:56;24.55;;;16.80;;
80136;SDS011;69466;55.948;37.484;2023-07-28T01:45:22;24.27;;;17.45;;
80136;SDS011;69466;55.948;37.484;2023-07-28T01:47:48;19.73;;;16.35;;
80136;SDS011;69466;55.948;37.484;2023-07-28T01:50:15;21.35;;;16.55;;
80136;SDS011;69466;55.948;37.484;2023-07-28T01:52:41;20.70;;;16.33;;
80136;SDS011;69466;55.948;37.484;2023-07-28T01:55:07;20.48;;;16.02;;
80136;SDS011;69466;55.948;37.484;2023-07-28T01:57:33;23.10;;;17.85;;
80136;SDS011;69466;55.948;37.484;2023-07-28T02:00:00;20.33;;;17.85;;
80136;SDS011;69466;55.948;37.484;2023-07-28T02:02:26;21.55;;;16.73;;
80136;SDS011;69466;55.948;37.484;2023-07-28T02:04:53;20.98;;;17.38;;
80136;SDS011;69466;55.948;37.484;2023-07-28T02:07:18;23.85;;;17.77;;
80136;SDS011;69466;55.948;37.484;2023-07-28T02:09:44;23.27;;;15.82;;
80136;SDS011;69466;55.948;37.484;2023-07-28T02:12:10;21.90;;;16.33;;
80136;SDS011;69466;55.948;37.484;2023-07-28T02:14:36;23.35;;;18.00;;
80136;SDS011;69466;55.948;37.484;2023-07-28T02:17:02;24.80;;;18.10;;
80136;SDS011;69466;55.948;37.484;2023-07-28T02:19:48;20.38;;;16.83;;
80136;SDS011;69466;55.948;37.484;2023-07-28T02:22:14;24.15;;;17.10;;
80136;SDS011;69466;55.948;37.484;2023-07-28T02:24:39;29.50;;;19.05;;
80136;SDS011;69466;55.948;37.484;2023-07-28T02:27:05;23.98;;;17.38;;
80136;SDS011;69466;55.948;37.484;2023-07-28T02:29:31;22.45;;;17.25;;
80136;SDS011;69466;55.948;37.484;2023-07-28T02:31:57;25.33;;;18.17;;
80136;SDS011;69466;55.948;37.484;2023-07-28T02:34:23;23.58;;;15.75;;
80136;SDS011;69466;55.948;37.484;2023-07-28T02:36:49;21.00;;;16.67;;
80136;SDS011;69466;55.948;37.484;2023-07-28T02:39:15;19.70;;;15.25;;
80136;SDS011;69466;55.948;37.484;2023-07-28T02:41:41;23.75;;;16.55;;
80136;SDS011;69466;55.948;37.484;2023-07-28T02:44:08;22.48;;;15.38;;
80136;SDS011;69466;55.948;37.484;2023-07-28T02:46:34;19.67;;;14.73;;
80136;SDS011;69466;55.948;37.484;2023-07-28T02:48:59;20.25;;;15.07;;
80136;SDS011;69466;55.948;37.484;2023-07-28T02:51:27;21.27;;;15.77;;
80136;SDS011;69466;55.948;37.484;2023-07-28T02:53:55;18.02;;;13.60;;
80136;SDS011;69466;55.948;37.484;2023-07-28T02:56:20;20.45;;;15.00;;
80136;SDS011;69466;55.948;37.484;2023-07-28T02:58:48;18.40;;;13.57;;
80136;SDS011;69466;55.948;37.484;2023-07-28T03:01:14;19.23;;;15.27;;
80136;SDS011;69466;55.948;37.484;2023-07-28T03:03:41;21.30;;;15.50;;
80136;SDS011;69466;55.948;37.484;2023-07-28T03:06:08;19.42;;;15.82;;
80136;SDS011;69466;55.948;37.484;2023-07-28T03:08:36;24.08;;;16.35;;
80136;SDS011;69466;55.948;37.484;2023-07-28T03:11:25;21.65;;;15.68;;
80136;SDS011;69466;55.948;37.484;2023-07-28T03:13:51;21.02;;;16.63;;
80136;SDS011;69466;55.948;37.484;2023-07-28T03:16:17;20.13;;;15.75;;
80136;SDS011;69466;55.948;37.484;2023-07-28T03:18:43;20.60;;;14.77;;
80136;SDS011;69466;55.948;37.484;2023-07-28T03:21:10;21.45;;;15.27;;
80136;SDS011;69466;55.948;37.484;2023-07-28T03:23:36;23.27;;;15.85;;
80136;SDS011;69466;55.948;37.484;2023-07-28T03:26:03;21.42;;;15.40;;
80136;SDS011;69466;55.948;37.484;2023-07-28T03:28:29;24.48;;;17.02;;
80136;SDS011;69466;55.948;37.484;2023-07-28T03:30:55;24.80;;;17.58;;
80136;SDS011;69466;55.948;37.484;2023-07-28T03:33:21;19.73;;;15.45;;
80136;SDS011;69466;55.948;37.484;2023-07-28T03:35:47;20.98;;;15.75;;
80136;SDS011;69466;55.948;37.484;2023-07-28T03:38:13;21.75;;;16.45;;
80136;SDS011;69466;55.948;37.484;2023-07-28T03:40:40;21.30;;;15.82;;
80136;SDS011;69466;55.948;37.484;2023-07-28T03:43:05;22.67;;;15.80;;
80136;SDS011;69466;55.948;37.484;2023-07-28T03:45:31;21.52;;;15.50;;
80136;SDS011;69466;55.948;37.484;2023-07-28T03:47:57;20.35;;;15.02;;
80136;SDS011;69466;55.948;37.484;2023-07-28T03:50:23;20.40;;;15.63;;
80136;SDS011;69466;55.948;37.484;2023-07-28T03:52:51;20.60;;;14.20;;
80136;SDS011;69466;55.948;37.484;2023-07-28T03:55:17;19.80;;;14.82;;
80136;SDS011;69466;55.948;37.484;2023-07-28T03:57:43;19.17;;;15.10;;
80136;SDS011;69466;55.948;37.484;2023-07-28T04:00:09;18.75;;;14.38;;
80136;SDS011;69466;55.948;37.484;2023-07-28T04:02:38;21.65;;;16.50;;
80136;SDS011;69466;55.948;37.484;2023-07-28T04:05:04;21.15;;;16.20;;
80136;SDS011;69466;55.948;37.484;2023-07-28T04:07:31;20.50;;;14.63;;
80136;SDS011;69466;55.948;37.484;2023-07-28T04:09:56;18.02;;;15.18;;
80136;SDS011;69466;55.948;37.484;2023-07-28T04:12:22;25.38;;;17.80;;
80136;SDS011;69466;55.948;37.484;2023-07-28T04:14:48;24.10;;;17.10;;
80136;SDS011;69466;55.948;37.484;2023-07-28T04:17:14;25.30;;;16.50;;
80136;SDS011;69466;55.948;37.484;2023-07-28T04:19:40;19.92;;;14.80;;
80136;SDS011;69466;55.948;37.484;2023-07-28T04:22:06;21.77;;;14.65;;
80136;SDS011;69466;55.948;37.484;2023-07-28T04:24:33;17.75;;;14.40;;
80136;SDS011;69466;55.948;37.484;2023-07-28T04:27:00;20.25;;;15.18;;
80136;SDS011;69466;55.948;37.484;2023-07-28T04:29:25;19.58;;;14.65;;
80136;SDS011;69466;55.948;37.484;2023-07-28T04:31:53;21.75;;;15.35;;
80136;SDS011;69466;55.948;37.484;2023-07-28T04:34:35;24.60;;;16.10;;
80136;SDS011;69466;55.948;37.484;2023-07-28T04:37:21;23.02;;;15.45;;
80136;SDS011;69466;55.948;37.484;2023-07-28T04:39:56;22.17;;;15.98;;
80136;SDS011;69466;55.948;37.484;2023-07-28T04:42:22;21.40;;;15.77;;
80136;SDS011;69466;55.948;37.484;2023-07-28T04:44:48;21.50;;;15.63;;
80136;SDS011;69466;55.948;37.484;2023-07-28T04:47:18;23.35;;;17.25;;
80136;SDS011;69466;55.948;37.484;2023-07-28T04:49:44;21.50;;;16.08;;
80136;SDS011;69466;55.948;37.484;2023-07-28T04:52:30;23.40;;;16.73;;
80136;SDS011;69466;55.948;37.484;2023-07-28T04:55:31;26.63;;;17.33;;
80136;SDS011;69466;55.948;37.484;2023-07-28T04:57:58;21.92;;;17.40;;
80136;SDS011;69466;55.948;37.484;2023-07-28T05:00:27;22.50;;;16.02;;
80136;SDS011;69466;55.948;37.484;2023-07-28T05:02:54;24.63;;;17.75;;
80136;SDS011;69466;55.948;37.484;2023-07-28T05:05:19;25.23;;;19.17;;
80136;SDS011;69466;55.948;37.484;2023-07-28T05:07:45;26.98;;;18.35;;
80136;SDS011;69466;55.948;37.484;2023-07-28T05:10:15;27.80;;;18.55;;
80136;SDS011;69466;55.948;37.484;2023-07-28T05:12:41;23.77;;;17.95;;
80136;SDS011;69466;55.948;37.484;2023-07-28T05:15:08;23.15;;;17.08;;
80136;SDS011;69466;55.948;37.484;2023-07-28T05:17:37;23.45;;;17.23;;
80136;SDS011;69466;55.948;37.484;2023-07-28T05:20:41;23.35;;;17.55;;
80136;SDS011;69466;55.948;37.484;2023-07-28T05:23:11;26.15;;;18.05;;
80136;SDS011;69466;55.948;37.484;2023-07-28T05:25:36;23.48;;;17.23;;
80136;SDS011;69466;55.948;37.484;2023-07-28T05:28:02;23.83;;;16.15;;
80136;SDS011;69466;55.948;37.484;2023-07-28T05:30:31;26.50;;;17.63;;
80136;SDS011;69466;55.948;37.484;2023-07-28T05:32:57;21.27;;;17.00;;
80136;SDS011;69466;55.948;37.484;2023-07-28T05:35:30;21.42;;;16.35;;
80136;SDS011;69466;55.948;37.484;2023-07-28T05:37:55;21.98;;;17.23;;
80136;SDS011;69466;55.948;37.484;2023-07-28T05:40:21;27.20;;;19.55;;
80136;SDS011;69466;55.948;37.484;2023-07-28T05:42:47;21.75;;;16.27;;
80136;SDS011;69466;55.948;37.484;2023-07-28T05:45:13;23.95;;;17.27;;
80136;SDS011;69466;55.948;37.484;2023-07-28T05:47:39;20.83;;;15.50;;
80136;SDS011;69466;55.948;37.484;2023-07-28T05:50:06;23.33;;;16.00;;
80136;SDS011;69466;55.948;37.484;2023-07-28T05:52:32;21.63;;;16.92;;
80136;SDS011;69466;55.948;37.484;2023-07-28T05:54:59;22.55;;;16.52;;
80136;SDS011;69466;55.948;37.484;2023-07-28T05:57:28;21.98;;;15.35;;
80136;SDS011;69466;55.948;37.484;2023-07-28T05:59:54;19.67;;;14.23;;
80136;SDS011;69466;55.948;37.484;2023-07-28T06:02:20;17.42;;;14.00;;
80136;SDS011;69466;55.948;37.484;2023-07-28T06:04:51;20.48;;;15.13;;
80136;SDS011;69466;55.948;37.484;2023-07-28T06:07:17;24.23;;;14.10;;
80136;SDS011;69466;55.948;37.484;2023-07-28T06:09:43;21.10;;;15.27;;
80136;SDS011;69466;55.948;37.484;2023-07-28T06:12:10;18.92;;;14.27;;
80136;SDS011;69466;55.948;37.484;2023-07-28T06:14:36;16.08;;;13.07;;
80136;SDS011;69466;55.948;37.484;2023-07-28T06:17:05;15.70;;;13.45;;
80136;SDS011;69466;55.948;37.484;2023-07-28T06:19:35;19.80;;;14.15;;
80136;SDS011;69466;55.948;37.484;2023-07-28T06:22:02;22.50;;;14.52;;
80136;SDS011;69466;55.948;37.484;2023-07-28T06:24:29;20.20;;;14.13;;
80136;SDS011;69466;55.948;37.484;2023-07-28T06:26:57;20.77;;;13.88;;
80136;SDS011;69466;55.948;37.484;2023-07-28T06:29:24;23.88;;;15.90;;
80136;SDS011;69466;55.948;37.484;2023-07-28T06:31:49;21.45;;;15.57;;
80136;SDS011;69466;55.948;37.484;2023-07-28T06:34:15;21.25;;;15.27;;
80136;SDS011;69466;55.948;37.484;2023-07-28T06:36:41;20.00;;;14.63;;
80136;SDS011;69466;55.948;37.484;2023-07-28T06:39:07;20.38;;;14.02;;
80136;SDS011;69466;55.948;37.484;2023-07-28T06:41:33;20.38;;;13.45;;
80136;SDS011;69466;55.948;37.484;2023-07-28T06:44:00;18.40;;;12.40;;
80136;SDS011;69466;55.948;37.484;2023-07-28T06:46:28;19.73;;;13.07;;
80136;SDS011;69466;55.948;37.484;2023-07-28T06:48:54;18.75;;;13.82;;
80136;SDS011;69466;55.948;37.484;2023-07-28T06:51:20;20.40;;;13.57;;
80136;SDS011;69466;55.948;37.484;2023-07-28T06:53:46;22.95;;;15.85;;
80136;SDS011;69466;55.948;37.484;2023-07-28T06:56:12;20.05;;;14.48;;
80136;SDS011;69466;55.948;37.484;2023-07-28T06:58:38;21.52;;;14.20;;
80136;SDS011;69466;55.948;37.484;2023-07-28T07:01:04;21.60;;;13.98;;
80136;SDS011;69466;55.948;37.484;2023-07-28T07:03:29;21.05;;;13.48;;
80136;SDS011;69466;55.948;37.484;2023-07-28T07:05:55;21.90;;;15.40;;
80136;SDS011;69466;55.948;37.484;2023-07-28T07:08:21;24.42;;;16.67;;
80136;SDS011;69466;55.948;37.484;2023-07-28T07:10:50;25.30;;;16.38;;
80136;SDS011;69466;55.948;37.484;2023-07-28T07:13:17;20.73;;;14.05;;
80136;SDS011;69466;55.948;37.484;2023-07-28T07:15:43;19.70;;;12.32;;
80136;SDS011;69466;55.948;37.484;2023-07-28T07:18:09;19.58;;;10.65;;
80136;SDS011;69466;55.948;37.484;2023-07-28T07:20:38;19.65;;;11.93;;
80136;SDS011;69466;55.948;37.484;2023-07-28T07:23:04;18.77;;;10.82;;
80136;SDS011;69466;55.948;37.484;2023-07-28T07:25:32;15.38;;;10.80;;
80136;SDS011;69466;55.948;37.484;2023-07-28T07:28:02;17.73;;;11.95;;
80136;SDS011;69466;55.948;37.484;2023-07-28T07:30:27;18.48;;;13.65;;
80136;SDS011;69466;55.948;37.484;2023-07-28T07:32:53;19.45;;;13.05;;
80136;SDS011;69466;55.948;37.484;2023-07-28T07:35:19;17.85;;;11.20;;
80136;SDS011;69466;55.948;37.484;2023-07-28T07:37:45;17.25;;;12.13;;
80136;SDS011;69466;55.948;37.484;2023-07-28T07:40:11;20.77;;;13.68;;
80136;SDS011;69466;55.948;37.484;2023-07-28T07:42:47;15.73;;;12.32;;
80136;SDS011;69466;55.948;37.484;2023-07-28T07:45:15;17.75;;;11.52;;
80136;SDS011;69466;55.948;37.484;2023-07-28T07:47:42;19.92;;;12.48;;
80136;SDS011;69466;55.948;37.484;2023-07-28T07:50:09;19.60;;;12.98;;
80136;SDS011;69466;55.948;37.484;2023-07-28T07:52:39;17.42;;;12.85;;
80136;SDS011;69466;55.948;37.484;2023-07-28T07:55:08;18.83;;;13.35;;
80136;SDS011;69466;55.948;37.484;2023-07-28T07:57:34;18.30;;;12.73;;
80136;SDS011;69466;55.948;37.484;2023-07-28T08:00:00;17.58;;;12.70;;
80136;SDS011;69466;55.948;37.484;2023-07-28T08:02:32;19.98;;;13.68;;
80136;SDS011;69466;55.948;37.484;2023-07-28T08:04:58;17.75;;;12.50;;
80136;SDS011;69466;55.948;37.484;2023-07-28T08:07:25;18.92;;;13.05;;
80136;SDS011;69466;55.948;37.484;2023-07-28T08:09:51;18.88;;;12.95;;
80136;SDS011;69466;55.948;37.484;2023-07-28T08:12:17;19.55;;;12.50;;
80136;SDS011;69466;55.948;37.484;2023-07-28T08:14:43;19.02;;;13.40;;
80136;SDS011;69466;55.948;37.484;2023-07-28T08:17:11;19.90;;;12.48;;
80136;SDS011;69466;55.948;37.484;2023-07-28T08:19:37;20.33;;;13.38;;
80136;SDS011;69466;55.948;37.484;2023-07-28T08:22:03;21.67;;;12.57;;
80136;SDS011;69466;55.948;37.484;2023-07-28T08:24:31;19.35;;;11.88;;
80136;SDS011;69466;55.948;37.484;2023-07-28T08:26:57;17.25;;;11.55;;
80136;SDS011;69466;55.948;37.484;2023-07-28T08:29:24;18.08;;;11.32;;
80136;SDS011;69466;55.948;37.484;2023-07-28T08:31:52;15.98;;;11.68;;
80136;SDS011;69466;55.948;37.484;2023-07-28T08:34:19;17.55;;;11.20;;
80136;SDS011;69466;55.948;37.484;2023-07-28T08:36:46;18.08;;;10.73;;
80136;SDS011;69466;55.948;37.484;2023-07-28T08:39:11;16.50;;;11.40;;
80136;SDS011;69466;55.948;37.484;2023-07-28T08:41:37;14.32;;;10.15;;
80136;SDS011;69466;55.948;37.484;2023-07-28T08:44:03;15.23;;;10.60;;
80136;SDS011;69466;55.948;37.484;2023-07-28T08:46:29;18.25;;;11.23;;
80136;SDS011;69466;55.948;37.484;2023-07-28T08:48:56;18.20;;;11.15;;
80136;SDS011;69466;55.948;37.484;2023-07-28T08:51:22;15.52;;;10.35;;
80136;SDS011;69466;55.948;37.484;2023-07-28T08:53:49;15.57;;;9.82;;
80136;SDS011;69466;55.948;37.484;2023-07-28T08:56:15;14.35;;;9.38;;
80136;SDS011;69466;55.948;37.484;2023-07-28T08:58:43;12.95;;;9.65;;
80136;SDS011;69466;55.948;37.484;2023-07-28T09:01:09;17.48;;;11.52;;
80136;SDS011;69466;55.948;37.484;2023-07-28T09:03:38;15.57;;;11.20;;
80136;SDS011;69466;55.948;37.484;2023-07-28T09:06:06;13.38;;;9.45;;
80136;SDS011;69466;55.948;37.484;2023-07-28T09:08:37;18.63;;;11.27;;
80136;SDS011;69466;55.948;37.484;2023-07-28T09:11:04;17.45;;;10.70;;
80136;SDS011;69466;55.948;37.484;2023-07-28T09:13:36;15.38;;;10.60;;
80136;SDS011;69466;55.948;37.484;2023-07-28T09:16:28;15.20;;;10.02;;
80136;SDS011;69466;55.948;37.484;2023-07-28T09:19:03;16.42;;;10.32;;
80136;SDS011;69466;55.948;37.484;2023-07-28T09:21:34;13.10;;;9.60;;
80136;SDS011;69466;55.948;37.484;2023-07-28T09:24:00;14.30;;;10.27;;
80136;SDS011;69466;55.948;37.484;2023-07-28T09:26:41;12.57;;;9.32;;
80136;SDS011;69466;55.948;37.484;2023-07-28T09:29:15;14.25;;;10.10;;
80136;SDS011;69466;55.948;37.484;2023-07-28T09:31:43;14.35;;;10.20;;
80136;SDS011;69466;55.948;37.484;2023-07-28T09:34:10;15.15;;;10.23;;
80136;SDS011;69466;55.948;37.484;2023-07-28T09:36:37;15.45;;;10.07;;
80136;SDS011;69466;55.948;37.484;2023-07-28T09:39:04;13.23;;;10.00;;
80136;SDS011;69466;55.948;37.484;2023-07-28T09:41:37;14.43;;;9.95;;
80136;SDS011;69466;55.948;37.484;2023-07-28T09:44:04;16.00;;;10.32;;
80136;SDS011;69466;55.948;37.484;2023-07-28T09:46:34;13.60;;;9.15;;
80136;SDS011;69466;55.948;37.484;2023-07-28T09:49:09;15.35;;;10.55;;
80136;SDS011;69466;55.948;37.484;2023-07-28T09:51:37;11.80;;;8.77;;
80136;SDS011;69466;55.948;37.484;2023-07-28T09:54:14;12.80;;;9.02;;
80136;SDS011;69466;55.948;37.484;2023-07-28T09:56:54;11.93;;;9.27;;
80136;SDS011;69466;55.948;37.484;2023-07-28T09:59:22;13.35;;;9.13;;
80136;SDS011;69466;55.948;37.484;2023-07-28T10:02:04;12.57;;;9.70;;
80136;SDS011;69466;55.948;37.484;2023-07-28T10:04:34;11.93;;;8.57;;
80136;SDS011;69466;55.948;37.484;2023-07-28T10:07:00;11.65;;;8.57;;
80136;SDS011;69466;55.948;37.484;2023-07-28T10:09:29;17.13;;;10.15;;
80136;SDS011;69466;55.948;37.484;2023-07-28T10:11:56;13.65;;;9.32;;
80136;SDS011;69466;55.948;37.484;2023-07-28T10:14:29;10.50;;;7.93;;
80136;SDS011;69466;55.948;37.484;2023-07-28T10:16:57;15.90;;;9.93;;
80136;SDS011;69466;55.948;37.484;2023-07-28T10:19:25;11.35;;;9.00;;
80136;SDS011;69466;55.948;37.484;2023-07-28T10:22:09;12.23;;;8.90;;
80136;SDS011;69466;55.948;37.484;2023-07-28T10:24:56;13.63;;;9.82;;
80136;SDS011;69466;55.948;37.484;2023-07-28T10:27:35;15.55;;;9.15;;
80136;SDS011;69466;55.948;37.484;2023-07-28T10:30:11;13.88;;;9.63;;
80136;SDS011;69466;55.948;37.484;2023-07-28T10:32:45;11.82;;;9.43;;
80136;SDS011;69466;55.948;37.484;2023-07-28T10:37:55;13.95;;;10.05;;
80136;SDS011;69466;55.948;37.484;2023-07-28T10:40:32;13.50;;;9.43;;
80136;SDS011;69466;55.948;37.484;2023-07-28T10:43:02;13.70;;;10.38;;
80136;SDS011;69466;55.948;37.484;2023-07-28T10:45:31;14.40;;;10.50;;
80136;SDS011;69466;55.948;37.484;2023-07-28T10:47:57;16.58;;;10.93;;
80136;SDS011;69466;55.948;37.484;2023-07-28T10:50:30;15.70;;;9.55;;
80136;SDS011;69466;55.948;37.484;2023-07-28T10:52:57;14.13;;;9.90;;
80136;SDS011;69466;55.948;37.484;2023-07-28T10:55:24;15.98;;;10.38;;
80136;SDS011;69466;55.948;37.484;2023-07-28T10:57:53;12.93;;;10.10;;
80136;SDS011;69466;55.948;37.484;2023-07-28T11:00:21;13.05;;;10.27;;
80136;SDS011;69466;55.948;37.484;2023-07-28T11:02:49;13.45;;;10.25;;
80136;SDS011;69466;55.948;37.484;2023-07-28T11:05:19;17.80;;;10.88;;
80136;SDS011;69466;55.948;37.484;2023-07-28T11:07:51;12.30;;;9.48;;
80136;SDS011;69466;55.948;37.484;2023-07-28T11:10:20;13.65;;;10.43;;
80136;SDS011;69466;55.948;37.484;2023-07-28T11:12:49;12.93;;;9.95;;
80136;SDS011;69466;55.948;37.484;2023-07-28T11:15:17;13.38;;;9.52;;
80136;SDS011;69466;55.948;37.484;2023-07-28T11:17:45;14.15;;;10.30;;
80136;SDS011;69466;55.948;37.484;2023-07-28T11:20:17;15.85;;;10.40;;
80136;SDS011;69466;55.948;37.484;2023-07-28T11:22:54;14.02;;;10.73;;
80136;SDS011;69466;55.948;37.484;2023-07-28T11:25:26;16.00;;;10.25;;
80136;SDS011;69466;55.948;37.484;2023-07-28T11:27:53;13.20;;;10.15;;
80136;SDS011;69466;55.948;37.484;2023-07-28T11:30:21;14.10;;;9.63;;
80136;SDS011;69466;55.948;37.484;2023-07-28T11:32:49;14.68;;;10.07;;
80136;SDS011;69466;55.948;37.484;2023-07-28T11:35:17;13.43;;;10.00;;
80136;SDS011;69466;55.948;37.484;2023-07-28T11:37:48;11.95;;;8.90;;
80136;SDS011;69466;55.948;37.484;2023-07-28T11:40:16;12.73;;;9.77;;
80136;SDS011;69466;55.948;37.484;2023-07-28T11:42:45;12.55;;;9.80;;
80136;SDS011;69466;55.948;37.484;2023-07-28T11:45:14;13.73;;;9.23;;
80136;SDS011;69466;55.948;37.484;2023-07-28T11:50:22;11.20;;;9.05;;
80136;SDS011;69466;55.948;37.484;2023-07-28T11:52:49;13.90;;;9.45;;
80136;SDS011;69466;55.948;37.484;2023-07-28T11:55:15;11.57;;;8.80;;
80136;SDS011;69466;55.948;37.484;2023-07-28T11:57:42;11.40;;;8.95;;
80136;SDS011;69466;55.948;37.484;2023-07-28T12:00:09;12.75;;;9.35;;
80136;SDS011;69466;55.948;37.484;2023-07-28T12:02:39;12.32;;;8.82;;
80136;SDS011;69466;55.948;37.484;2023-07-28T12:05:15;14.05;;;10.70;;
80136;SDS011;69466;55.948;37.484;2023-07-28T12:07:46;10.93;;;7.95;;
80136;SDS011;69466;55.948;37.484;2023-07-28T12:10:13;9.80;;;5.78;;
80136;SDS011;69466;55.948;37.484;2023-07-28T12:12:40;7.78;;;6.05;;
80136;SDS011;69466;55.948;37.484;2023-07-28T12:15:20;8.98;;;5.40;;
80136;SDS011;69466;55.948;37.484;2023-07-28T12:18:04;8.48;;;4.97;;
80136;SDS011;69466;55.948;37.484;2023-07-28T12:20:38;5.82;;;4.18;;
80136;SDS011;69466;55.948;37.484;2023-07-28T12:23:04;6.32;;;3.13;;
80136;SDS011;69466;55.948;37.484;2023-07-28T12:25:32;5.68;;;3.58;;
80136;SDS011;69466;55.948;37.484;2023-07-28T12:27:58;5.63;;;3.15;;
80136;SDS011;69466;55.948;37.484;2023-07-28T12:30:24;6.72;;;2.80;;
80136;SDS011;69466;55.948;37.484;2023-07-28T12:32:50;5.97;;;3.03;;
80136;SDS011;69466;55.948;37.484;2023-07-28T12:35:16;6.47;;;2.65;;
80136;SDS011;69466;55.948;37.484;2023-07-28T12:37:42;5.95;;;3.00;;
80136;SDS011;69466;55.948;37.484;2023-07-28T12:40:08;4.95;;;2.80;;
80136;SDS011;69466;55.948;37.484;2023-07-28T12:42:35;5.40;;;2.83;;
80136;SDS011;69466;55.948;37.484;2023-07-28T12:45:01;8.95;;;3.83;;
80136;SDS011;69466;55.948;37.484;2023-07-28T12:47:30;5.50;;;2.90;;
80136;SDS011;69466;55.948;37.484;2023-07-28T12:49:56;6.75;;;2.95;;
80136;SDS011;69466;55.948;37.484;2023-07-28T12:52:22;6.28;;;3.03;;
80136;SDS011;69466;55.948;37.484;2023-07-28T12:54:48;6.43;;;3.22;;
80136;SDS011;69466;55.948;37.484;2023-07-28T12:57:14;5.65;;;3.33;;
80136;SDS011;69466;55.948;37.484;2023-07-28T12:59:40;5.60;;;3.08;;
80136;SDS011;69466;55.948;37.484;2023-07-28T13:02:06;7.47;;;3.00;;
80136;SDS011;69466;55.948;37.484;2023-07-28T13:04:31;5.43;;;2.90;;
80136;SDS011;69466;55.948;37.484;2023-07-28T13:06:57;6.15;;;3.28;;
80136;SDS011;69466;55.948;37.484;2023-07-28T13:09:23;5.78;;;3.50;;
80136;SDS011;69466;55.948;37.484;2023-07-28T13:11:49;8.30;;;4.28;;
80136;SDS011;69466;55.948;37.484;2023-07-28T13:14:15;5.60;;;3.50;;
80136;SDS011;69466;55.948;37.484;2023-07-28T13:16:41;5.63;;;3.50;;
80136;SDS011;69466;55.948;37.484;2023-07-28T13:19:07;6.10;;;3.10;;
80136;SDS011;69466;55.948;37.484;2023-07-28T13:21:33;6.38;;;3.40;;
80136;SDS011;69466;55.948;37.484;2023-07-28T13:24:08;5.47;;;3.22;;
80136;SDS011;69466;55.948;37.484;2023-07-28T13:26:34;5.07;;;3.20;;
80136;SDS011;69466;55.948;37.484;2023-07-28T13:29:00;5.35;;;2.85;;
80136;SDS011;69466;55.948;37.484;2023-07-28T13:31:27;6.13;;;2.95;;
80136;SDS011;69466;55.948;37.484;2023-07-28T13:33:53;7.45;;;3.60;;
80136;SDS011;69466;55.948;37.484;2023-07-28T13:36:19;5.35;;;3.30;;
80136;SDS011;69466;55.948;37.484;2023-07-28T13:38:45;6.53;;;3.15;;
80136;SDS011;69466;55.948;37.484;2023-07-28T13:41:11;7.93;;;3.25;;
80136;SDS011;69466;55.948;37.484;2023-07-28T13:43:43;4.93;;;3.15;;
80136;SDS011;69466;55.948;37.484;2023-07-28T13:46:08;5.13;;;3.40;;
80136;SDS011;69466;55.948;37.484;2023-07-28T13:48:34;5.97;;;3.30;;
80136;SDS011;69466;55.948;37.484;2023-07-28T13:51:05;5.93;;;2.85;;
80136;SDS011;69466;55.948;37.484;2023-07-28T13:53:32;4.78;;;2.65;;
80136;SDS011;69466;55.948;37.484;2023-07-28T13:55:57;4.70;;;2.83;;
80136;SDS011;69466;55.948;37.484;2023-07-28T13:58:23;5.93;;;3.10;;
80136;SDS011;69466;55.948;37.484;2023-07-28T14:00:51;5.28;;;2.60;;
80136;SDS011;69466;55.948;37.484;2023-07-28T14:03:17;5.55;;;2.65;;
80136;SDS011;69466;55.948;37.484;2023-07-28T14:05:42;6.53;;;2.30;;
80136;SDS011;69466;55.948;37.484;2023-07-28T14:08:09;4.78;;;2.33;;
80136;SDS011;69466;55.948;37.484;2023-07-28T14:10:36;6.75;;;2.40;;
80136;SDS011;69466;55.948;37.484;2023-07-28T14:13:03;6.25;;;3.05;;
80136;SDS011;69466;55.948;37.484;2023-07-28T14:15:29;4.32;;;2.40;;
80136;SDS011;69466;55.948;37.484;2023-07-28T14:17:55;5.38;;;3.20;;
80136;SDS011;69466;55.948;37.484;2023-07-28T14:20:21;6.32;;;3.22;;
80136;SDS011;69466;55.948;37.484;2023-07-28T14:22:47;6.70;;;2.80;;
80136;SDS011;69466;55.948;37.484;2023-07-28T14:25:13;5.07;;;2.95;;